createdAt,value
2022-10-27T00:02:27.794Z,11.70
2022-10-27T00:05:06.462Z,11.70
2022-10-27T00:07:45.915Z,11.70
2022-10-27T00:10:24.940Z,11.70
2022-10-27T00:12:57.863Z,11.60
2022-10-27T00:15:33.736Z,11.50
2022-10-27T00:18:02.202Z,11.60
2022-10-27T00:20:33.832Z,11.50
2022-10-27T00:23:06.251Z,11.50
2022-10-27T00:25:36.436Z,11.40
2022-10-27T00:28:11.822Z,11.30
2022-10-27T00:30:45.616Z,11.40
2022-10-27T00:33:14.307Z,11.30
2022-10-27T00:35:43.847Z,11.30
2022-10-27T00:38:13.967Z,11.30
2022-10-27T00:40:45.044Z,11.30
2022-10-27T00:43:36.291Z,11.20
2022-10-27T00:46:20.251Z,11.10
2022-10-27T00:48:55.004Z,11.10
2022-10-27T00:51:29.477Z,11.00
2022-10-27T00:54:01.123Z,11.10
2022-10-27T00:56:29.553Z,11.10
2022-10-27T00:59:01.108Z,11.10
2022-10-27T01:01:30.107Z,11.20
2022-10-27T01:04:05.743Z,11.20
2022-10-27T01:06:38.253Z,11.20
2022-10-27T01:09:07.546Z,11.20
2022-10-27T01:11:35.905Z,11.10
2022-10-27T01:14:09.473Z,11.00
2022-10-27T01:16:51.542Z,11.00
2022-10-27T01:19:43.413Z,11.00
2022-10-27T01:22:23.358Z,10.90
2022-10-27T01:25:06.250Z,10.80
2022-10-27T01:28:10.054Z,10.80
2022-10-27T01:30:51.961Z,10.90
2022-10-27T01:33:26.072Z,10.80
2022-10-27T01:35:59.831Z,10.80
2022-10-27T01:38:41.469Z,10.80
2022-10-27T01:41:16.731Z,10.90
2022-10-27T01:43:57.519Z,10.90
2022-10-27T01:46:32.758Z,10.80
2022-10-27T01:49:01.939Z,10.70
2022-10-27T01:51:34.228Z,10.60
2022-10-27T01:54:10.506Z,10.60
2022-10-27T01:57:00.366Z,10.60
2022-10-27T01:59:41.699Z,10.70
2022-10-27T02:02:19.862Z,10.60
2022-10-27T02:04:59.545Z,10.50
2022-10-27T02:07:40.163Z,10.50
2022-10-27T02:10:15.793Z,10.40
2022-10-27T02:12:46.057Z,10.40
2022-10-27T02:15:22.370Z,10.50
2022-10-27T02:17:57.786Z,10.50
2022-10-27T02:20:30.823Z,10.50
2022-10-27T02:23:01.143Z,10.60
2022-10-27T02:25:38.264Z,10.60
2022-10-27T02:28:14.212Z,10.50
2022-10-27T02:30:43.661Z,10.50
2022-10-27T02:33:14.942Z,10.50
2022-10-27T02:35:46.334Z,10.80
2022-10-27T02:38:16.772Z,10.80
2022-10-27T02:40:44.923Z,10.80
2022-10-27T02:43:13.131Z,10.80
2022-10-27T02:45:41.209Z,10.90
2022-10-27T02:48:09.724Z,10.90
2022-10-27T02:53:07.237Z,11.00
2022-10-27T02:55:35.895Z,11.00
2022-10-27T02:58:04.024Z,11.00
2022-10-27T03:00:32.335Z,11.00
2022-10-27T03:03:03.969Z,10.90
2022-10-27T03:05:32.309Z,10.90
2022-10-27T03:08:02.045Z,10.90
2022-10-27T03:10:33.226Z,11.00
2022-10-27T03:13:01.652Z,11.10
2022-10-27T03:15:30.153Z,11.30
2022-10-27T03:17:58.578Z,11.50
2022-10-27T03:20:27.099Z,11.80
2022-10-27T03:22:55.695Z,11.90
2022-10-27T03:25:27.862Z,12.00
2022-10-27T03:27:56.325Z,12.10
2022-10-27T03:30:24.758Z,12.10
2022-10-27T03:32:57.065Z,12.20
2022-10-27T03:35:25.344Z,12.20
2022-10-27T03:37:57.428Z,12.10
2022-10-27T03:40:27.581Z,12.20
2022-10-27T03:43:19.854Z,12.30
2022-10-27T03:45:50.140Z,12.20
2022-10-27T03:48:18.562Z,12.20
2022-10-27T03:50:48.034Z,12.20
2022-10-27T03:53:21.214Z,12.10
2022-10-27T03:55:53.599Z,12.10
2022-10-27T03:58:54.949Z,12.00
2022-10-27T04:08:45.338Z,11.60
2022-10-27T04:11:16.064Z,11.40
2022-10-27T04:13:44.126Z,11.30
2022-10-27T04:16:12.175Z,11.20
2022-10-27T04:18:40.349Z,11.00
2022-10-27T04:21:39.634Z,10.90
2022-10-27T04:32:07.566Z,11.00
2022-10-27T04:35:17.281Z,11.10
2022-10-27T04:37:46.207Z,11.20
2022-10-27T04:44:49.367Z,11.10
2022-10-27T04:47:17.516Z,11.70
2022-10-27T04:49:45.580Z,11.70
2022-10-27T04:52:13.667Z,11.50
2022-10-27T04:54:41.739Z,11.40
2022-10-27T04:57:09.770Z,11.20
2022-10-27T04:59:39.412Z,11.10
2022-10-27T05:02:07.559Z,11.00
2022-10-27T05:04:51.525Z,10.90
2022-10-27T05:07:24.404Z,10.90
2022-10-27T05:10:12.867Z,10.80
2022-10-27T05:13:01.675Z,10.70
2022-10-27T05:15:31.075Z,10.60
2022-10-27T05:17:59.110Z,10.50
2022-10-27T05:20:27.149Z,10.50
2022-10-27T05:22:55.140Z,10.50
2022-10-27T05:25:23.106Z,10.80
2022-10-27T05:27:51.476Z,11.00
2022-10-27T05:31:00.159Z,11.10
2022-10-27T05:33:36.660Z,11.20
2022-10-27T05:40:05.207Z,11.00
2022-10-27T05:50:49.960Z,10.50
2022-10-27T06:00:52.416Z,10.40
2022-10-27T06:03:34.231Z,10.70
2022-10-27T06:06:07.185Z,10.80
2022-10-27T06:08:35.338Z,10.90
2022-10-27T06:11:06.414Z,11.30
2022-10-27T06:13:34.727Z,11.50
2022-10-27T06:16:07.216Z,11.70
2022-10-27T06:18:39.966Z,11.70
2022-10-27T06:21:10.171Z,11.80
2022-10-27T06:23:42.870Z,11.80
2022-10-27T06:26:12.646Z,11.80
2022-10-27T06:28:40.769Z,12.00
2022-10-27T06:31:11.175Z,12.20
2022-10-27T06:33:41.102Z,12.50
2022-10-27T06:36:14.343Z,12.70
2022-10-27T06:38:45.625Z,13.00
2022-10-27T06:41:20.150Z,13.30
2022-10-27T06:43:50.758Z,13.50
2022-10-27T06:46:19.277Z,13.70
2022-10-27T06:48:49.155Z,14.00
2022-10-27T06:51:17.404Z,14.10
2022-10-27T06:53:46.134Z,14.20
2022-10-27T06:56:14.448Z,14.30
2022-10-27T06:58:42.861Z,14.50
2022-10-27T07:01:11.784Z,14.60
2022-10-27T07:03:43.255Z,14.70
2022-10-27T07:06:13.042Z,14.80
2022-10-27T07:08:44.039Z,14.90
2022-10-27T07:11:18.388Z,15.00
2022-10-27T07:14:11.152Z,15.10
2022-10-27T07:20:02.508Z,15.20
2022-10-27T07:22:40.434Z,15.30
2022-10-27T07:25:10.332Z,15.30
2022-10-27T07:27:41.644Z,15.30
2022-10-27T07:30:11.060Z,15.30
2022-10-27T07:32:39.319Z,15.40
2022-10-27T07:35:14.175Z,15.50
2022-10-27T07:37:47.527Z,15.60
2022-10-27T07:40:19.486Z,15.70
2022-10-27T07:42:51.117Z,15.80
2022-10-27T07:45:21.782Z,15.80
2022-10-27T07:47:52.216Z,15.90
2022-10-27T07:50:27.901Z,15.90
2022-10-27T07:53:02.371Z,16.00
2022-10-27T07:55:32.412Z,16.10
2022-10-27T07:58:01.475Z,16.10
2022-10-27T08:00:31.218Z,16.20
2022-10-27T08:03:21.537Z,16.30
2022-10-27T08:06:24.014Z,16.30
2022-10-27T08:09:53.213Z,16.40
2022-10-27T08:28:12.394Z,17.00
2022-10-27T08:46:08.615Z,17.50
2022-10-27T08:49:07.352Z,17.60
2022-10-27T08:52:03.352Z,17.60
2022-10-27T08:58:00.383Z,17.70
2022-10-27T09:01:08.684Z,17.90
2022-10-27T09:04:13.404Z,17.90
2022-10-27T09:07:10.715Z,17.90
2022-10-27T09:10:21.469Z,18.10
2022-10-27T09:13:11.361Z,18.00
2022-10-27T09:16:00.949Z,18.20
2022-10-27T09:19:01.795Z,18.20
2022-10-27T09:24:44.778Z,18.30
2022-10-27T09:27:33.366Z,18.30
2022-10-27T09:33:01.644Z,18.40
2022-10-27T09:35:56.859Z,18.40
2022-10-27T09:38:39.146Z,18.50
2022-10-27T09:41:30.015Z,18.60
2022-10-27T09:44:16.062Z,18.70
2022-10-27T09:47:04.369Z,18.80
2022-10-27T09:49:44.581Z,18.80
2022-10-27T09:52:40.287Z,18.90
2022-10-27T09:55:42.602Z,18.80
2022-10-27T09:58:57.630Z,18.30
2022-10-27T10:02:25.316Z,17.70
2022-10-27T10:07:55.476Z,17.30
2022-10-27T10:29:27.547Z,17.10
2022-10-27T10:32:15.710Z,17.30
2022-10-27T11:29:43.927Z,19.40
2022-10-27T11:32:57.787Z,19.60
2022-10-27T11:35:57.810Z,19.60
2022-10-27T11:38:36.714Z,19.70
2022-10-27T11:41:10.930Z,19.60
2022-10-27T11:43:57.862Z,19.50
2022-10-27T11:46:44.616Z,19.50
2022-10-27T11:49:30.933Z,19.50
2022-10-27T13:10:08.461Z,20.80
2022-10-27T13:13:34.840Z,20.80
2022-10-27T13:16:22.438Z,20.80
2022-10-27T13:23:16.081Z,20.80
2022-10-27T13:40:37.383Z,20.80
2022-10-27T13:43:40.801Z,20.90
2022-10-27T13:46:17.937Z,20.90
2022-10-27T13:48:57.232Z,20.80
2022-10-27T13:52:02.895Z,20.80
2022-10-27T13:55:06.743Z,20.70
2022-10-27T13:58:09.243Z,20.60
2022-10-27T14:01:19.471Z,20.60
2022-10-27T14:04:31.307Z,20.50
2022-10-27T14:09:47.573Z,20.40
2022-10-27T14:12:23.676Z,20.40
2022-10-27T14:14:57.189Z,20.40
2022-10-27T14:17:29.790Z,20.30
2022-10-27T14:23:20.180Z,20.20
2022-10-27T14:25:48.287Z,20.00
2022-10-27T14:28:18.448Z,19.90
2022-10-27T14:30:49.375Z,19.80
2022-10-27T14:33:23.142Z,19.80
2022-10-27T14:36:05.050Z,19.70
2022-10-27T14:38:36.017Z,19.90
2022-10-27T14:41:04.074Z,20.00
2022-10-27T14:43:35.197Z,20.00
2022-10-27T14:46:05.870Z,19.90
2022-10-27T14:48:37.468Z,19.80
2022-10-27T14:51:13.443Z,19.70
2022-10-27T14:53:41.608Z,19.50
2022-10-27T14:56:19.933Z,19.40
2022-10-27T14:58:57.031Z,19.40
2022-10-27T15:01:35.051Z,19.60
2022-10-27T15:04:17.199Z,19.60
2022-10-27T15:06:47.344Z,19.70
2022-10-27T15:09:31.549Z,19.80
2022-10-27T15:12:07.069Z,19.80
2022-10-27T15:14:39.073Z,19.60
2022-10-27T15:17:24.200Z,19.60
2022-10-27T15:19:58.129Z,19.40
2022-10-27T15:22:30.452Z,19.50
2022-10-27T15:25:00.261Z,19.80
2022-10-27T15:27:41.222Z,19.80
2022-10-27T15:30:16.773Z,19.70
2022-10-27T15:32:50.475Z,19.60
2022-10-27T15:35:36.391Z,19.60
2022-10-27T15:38:05.119Z,19.50
2022-10-27T15:40:48.754Z,19.60
2022-10-27T15:43:24.078Z,19.70
2022-10-27T15:46:08.950Z,19.60
2022-10-27T15:48:40.088Z,19.50
2022-10-27T15:51:14.387Z,19.50
2022-10-27T15:53:51.712Z,19.70
2022-10-27T15:56:36.583Z,19.70
2022-10-27T15:59:11.901Z,19.80
2022-10-27T16:01:42.643Z,19.70
2022-10-27T16:04:33.604Z,19.70
2022-10-27T16:07:56.294Z,19.60
2022-10-27T16:10:25.738Z,19.40
2022-10-27T16:16:37.262Z,19.30
2022-10-27T16:19:06.121Z,19.10
2022-10-27T16:21:40.959Z,19.20
2022-10-27T16:24:39.463Z,19.10
2022-10-27T16:27:07.764Z,19.00
2022-10-27T16:29:38.642Z,18.90
2022-10-27T16:32:55.893Z,18.70
2022-10-27T16:36:19.934Z,18.70
2022-10-27T16:38:55.184Z,18.70
2022-10-27T16:42:37.287Z,18.70
2022-10-27T16:49:16.782Z,18.60
2022-10-27T16:51:44.917Z,18.70
2022-10-27T16:54:23.801Z,18.60
2022-10-27T16:56:57.275Z,18.60
2022-10-27T16:59:44.626Z,18.60
2022-10-27T17:31:45.103Z,18.30
2022-10-27T17:35:02.583Z,18.20
2022-10-27T17:37:33.473Z,18.10
2022-10-27T17:40:07.744Z,18.00
2022-10-27T17:42:37.215Z,18.10
2022-10-27T17:45:06.081Z,18.10
2022-10-27T17:47:36.159Z,18.10
2022-10-27T17:50:09.183Z,18.30
2022-10-27T17:52:40.340Z,18.30
2022-10-27T17:55:09.256Z,18.30
2022-10-27T17:57:37.433Z,18.30
2022-10-27T18:00:09.373Z,18.20
2022-10-27T18:02:47.688Z,18.10
2022-10-27T18:05:17.700Z,18.10
2022-10-27T18:07:59.180Z,18.10
2022-10-27T18:10:27.160Z,18.20
2022-10-27T18:38:54.758Z,18.20
2022-10-27T18:41:24.836Z,18.30
2022-10-27T18:47:46.688Z,18.20
2022-10-27T18:50:17.373Z,18.10
2022-10-27T18:52:45.615Z,18.10
2022-10-27T18:55:17.161Z,18.10
2022-10-27T18:57:48.298Z,18.10
2022-10-27T19:00:16.654Z,18.10
2022-10-27T19:02:44.985Z,18.10
2022-10-27T19:05:13.158Z,18.10
2022-10-27T19:07:41.282Z,18.20
2022-10-27T19:10:10.016Z,18.10
2022-10-27T19:12:40.807Z,18.10
2022-10-27T19:15:09.898Z,18.10
2022-10-27T19:17:38.051Z,18.10
2022-10-27T19:20:06.964Z,18.00
2022-10-27T19:22:35.007Z,17.90
2022-10-27T19:25:03.497Z,17.80
2022-10-27T19:27:31.886Z,17.80
2022-10-27T19:30:01.441Z,17.80
2022-10-27T19:32:29.983Z,17.70
2022-10-27T19:34:58.166Z,17.60
2022-10-27T19:37:26.371Z,17.50
2022-10-27T19:39:57.825Z,17.40
2022-10-27T19:42:25.906Z,17.30
2022-10-27T19:44:54.038Z,17.20
2022-10-27T19:49:53.582Z,17.10
2022-10-27T19:52:21.863Z,17.10
2022-10-27T19:54:50.130Z,17.00
2022-10-27T19:57:18.430Z,17.10
2022-10-27T19:59:49.431Z,17.00
2022-10-27T20:02:17.787Z,16.90
2022-10-27T20:04:50.728Z,16.80
2022-10-27T20:07:21.839Z,16.70
2022-10-27T20:09:55.667Z,16.60
2022-10-27T20:12:25.800Z,16.40
2022-10-27T20:14:56.667Z,16.20
2022-10-27T20:17:24.850Z,16.10
2022-10-27T20:20:01.182Z,16.00
2022-10-27T20:22:29.246Z,15.90
2022-10-27T20:24:57.447Z,15.90
2022-10-27T20:27:34.454Z,16.00
2022-10-27T20:30:02.619Z,16.50
2022-10-27T20:32:32.931Z,16.80
2022-10-27T20:35:02.508Z,16.90
2022-10-27T20:37:36.262Z,17.10
2022-10-27T20:40:09.017Z,17.30
2022-10-27T20:42:39.174Z,17.40
2022-10-27T20:45:07.971Z,17.50
2022-10-27T20:47:36.152Z,17.50
2022-10-27T20:50:06.353Z,17.50
2022-10-27T20:55:08.684Z,17.50
2022-10-27T20:57:36.851Z,17.50
2022-10-27T21:00:05.611Z,17.50
2022-10-27T21:02:33.684Z,17.30
2022-10-27T21:05:01.739Z,17.20
2022-10-27T21:07:34.137Z,17.20
2022-10-27T21:10:02.277Z,17.00
2022-10-27T21:12:30.840Z,16.80
2022-10-27T21:14:58.897Z,16.60
2022-10-27T21:17:26.943Z,16.30
2022-10-27T21:19:54.945Z,16.10
2022-10-27T21:22:23.099Z,16.00
2022-10-27T21:24:52.535Z,15.90
2022-10-27T21:27:24.567Z,15.70
2022-10-27T21:29:52.640Z,15.60
2022-10-27T21:32:21.715Z,15.50
2022-10-27T21:34:49.702Z,15.30
2022-10-27T21:37:17.808Z,15.20
2022-10-27T21:39:45.867Z,15.20
2022-10-27T21:42:16.394Z,15.20
2022-10-27T21:44:44.379Z,15.20
2022-10-27T21:47:12.366Z,15.30
2022-10-27T21:49:40.294Z,15.50
2022-10-27T21:52:08.358Z,15.60
2022-10-27T21:54:36.382Z,15.80
2022-10-27T21:57:04.514Z,16.00
2022-10-27T21:59:33.978Z,16.20
2022-10-27T22:02:01.993Z,16.50
2022-10-27T22:04:30.226Z,16.70
2022-10-27T22:06:59.902Z,16.90
2022-10-27T22:09:27.857Z,17.00
2022-10-27T22:11:55.941Z,16.90
2022-10-27T22:14:23.973Z,16.70
2022-10-27T22:16:53.474Z,16.50
2022-10-27T22:19:22.201Z,16.30
2022-10-27T22:21:50.476Z,16.20
2022-10-27T22:24:18.570Z,16.00
2022-10-27T22:26:49.225Z,15.80
2022-10-27T22:29:17.492Z,15.60
2022-10-27T22:31:45.497Z,15.50
2022-10-27T22:34:15.142Z,15.40
2022-10-27T22:36:43.194Z,15.40
2022-10-27T22:39:13.620Z,15.30
2022-10-27T22:41:44.315Z,15.30
2022-10-27T22:44:12.281Z,15.20
2022-10-27T22:46:40.375Z,15.10
2022-10-27T22:49:08.414Z,15.10
2022-10-27T22:51:37.872Z,15.10
2022-10-27T22:54:05.942Z,15.20
2022-10-27T22:56:34.774Z,15.20
2022-10-27T22:59:08.291Z,15.20
2022-10-27T23:01:38.549Z,15.10
2022-10-27T23:04:09.891Z,15.20
2022-10-27T23:06:40.703Z,15.40
2022-10-27T23:09:17.923Z,15.40
2022-10-27T23:11:46.691Z,15.30
2022-10-27T23:14:15.908Z,15.10
2022-10-27T23:16:44.488Z,15.00
2022-10-27T23:19:13.409Z,14.80
2022-10-27T23:21:42.921Z,14.70
2022-10-27T23:24:15.200Z,14.60
2022-10-27T23:26:43.339Z,14.50
2022-10-27T23:29:13.929Z,14.50
2022-10-27T23:31:42.028Z,14.40
2022-10-27T23:34:12.159Z,14.50
2022-10-27T23:36:41.540Z,14.60
2022-10-27T23:39:11.095Z,14.70
2022-10-27T23:41:39.151Z,14.80
2022-10-27T23:44:07.221Z,14.80
2022-10-27T23:46:35.232Z,14.70
2022-10-27T23:49:03.261Z,14.60
2022-10-27T23:51:31.344Z,14.60
2022-10-27T23:53:59.571Z,14.60
2022-10-27T23:56:28.965Z,14.70
2022-10-27T23:58:58.114Z,14.80
